Archival Weather

Norman Y Mineta San Jose Intl

San Jose, California (KSJC)

Report from: Friday, February 2, 2024 8:53 PM PST
Current time: Thursday, June 20, 2024 11:59 PM PDT

Current weather – Weather history – Daily summaries
Weather forecast

Temperature10.0°C (50.0°F)
Wind chill8.8°C (47.8°F)
Dew point5.6°C (42.1°F)
Winds 5 kts (2.6 m/s, 5.8 mph) South (170°)
Visibility10 mi. (16.1 km)
Clouds Few clouds 2,000 ft. (610 m)
Few clouds 4,000 ft. (1,219 m)
Altimeter30.01 in.Hg (1016 mB)
Relative humidity74 %
Density altitude-562 ft. (-171 m)
Sea-level pressure101.6 kPa (1016 mB, 30.01 in.Hg)
Remarks Automated weather observing station with precipitation discriminator
Flight conditions Visual Meteorological Conditions
Raw dataKSJC 030453Z 17005KT 10SM FEW020 FEW040 10/06 A3001 RMK AO2 SLP161 T01000056
An error has occurred. This application may no longer respond until reloaded. Reload 🗙